KAKO/AKO METAR and TAF weather

Enter ICAO airport designator
Station Type Date Time Source
KAKO METAR 2020/09/25 17:53 UTC NOAA

KAKO 251753Z AUTO 05008KT 10SM CLR 24/03 A3001 RMK AO2 SLP104 T02390033 10244 20128 50000


Station Type Date Time Source
KAKO Decoded METAR 2020/09/25 17:53 UTC NOAA

COLORADO PLAINS REGIONAL, CO, United States (KAKO) 40-10N 103-13W 1421M
Sep 25, 2020 - 01:53 PM EDT / 2020.09.25 1753 UTC
Wind: from the NE (050 degrees) at 9 MPH (8 KT):0
Visibility: 10 mile(s):0
Sky conditions: clear
Temperature: 75.0 F (23.9 C)
Dew Point: 37.9 F (3.3 C)
Relative Humidity: 26%
Pressure (altimeter): 30.01 in. Hg (1016 hPa)
Pressure tendency: 0.00 inches (0.0 hPa) higher than three hours ago
ob: KAKO 251753Z AUTO 05008KT 10SM CLR 24/03 A3001 RMK AO2 SLP104 T02390033 10244 20128 50000
cycle: 18

Station Type Date Time Source
KAKO TAF UTC NOAA

Error!

Example: see airport list